Long Bennington, United Kingdom
Current Conditions -  °F | °C
As of 2:50 AM on Wednesday 22 Oct 2014 (Local Time) from EGYD Reporting Station
Few Clouds Few Clouds  
Wind Chill:   Ceiling: Unl
Heat Index:   Visibility: 6mi
Dew Point:   Wind: 16mph
Humidity: 87%   Direction: 260°W
Pressure: 30.12"   Gusts: NA
Location:  52.99°N, 0.76°W
Report Text: EGYD 220150Z AUTO 26014KT 9999 // FEW034/// 06/04 Q1020
Loading
Personal Weather Stations






























Interactive Weather Map
Tropical Storm Tracking
New forecast layout! Learn more

10-Day Weather Forecast

Advertisements
Track Severe Weather on mobile